createdAt,value
2022-08-19T00:02:12.757Z,1.50
2022-08-19T00:07:32.994Z,1.27
2022-08-19T00:10:42.554Z,1.83
2022-08-19T00:13:10.978Z,1.70
2022-08-19T00:19:04.848Z,2.47
2022-08-19T00:21:35.065Z,2.33
2022-08-19T00:24:26.081Z,2.40
2022-08-19T00:27:25.208Z,2.70
2022-08-19T00:33:12.496Z,2.40
2022-08-19T00:35:56.356Z,3.08
2022-08-19T00:38:37.339Z,3.93
2022-08-19T00:41:09.517Z,2.53
2022-08-19T00:43:39.146Z,2.58
2022-08-19T00:49:02.285Z,2.85
2022-08-19T00:51:33.650Z,2.83
2022-08-19T00:54:33.578Z,2.58
2022-08-19T01:00:44.636Z,2.70
2022-08-19T01:03:56.683Z,2.30
2022-08-19T01:06:29.772Z,2.90
2022-08-19T01:08:58.756Z,3.05
2022-08-19T01:11:49.955Z,2.80
2022-08-19T01:14:44.584Z,2.67
2022-08-19T01:17:22.891Z,2.67
2022-08-19T01:20:03.217Z,1.77
2022-08-19T01:22:51.016Z,1.52
2022-08-19T01:25:44.051Z,1.25
2022-08-19T01:28:34.234Z,1.88
2022-08-19T01:31:26.761Z,1.73
2022-08-19T01:34:23.054Z,1.60
2022-08-19T01:39:57.438Z,0.77
2022-08-19T01:42:35.861Z,0.68
2022-08-19T01:45:05.024Z,0.93
2022-08-19T01:50:27.725Z,1.40
2022-08-19T01:53:47.258Z,0.90
2022-08-19T01:56:36.598Z,0.95
2022-08-19T01:59:16.461Z,1.20
2022-08-19T02:02:12.400Z,1.00
2022-08-19T02:05:32.345Z,1.40
2022-08-19T02:07:35.795Z,1.10
2022-08-19T02:10:52.899Z,0.52
2022-08-19T02:13:21.646Z,0.35
2022-08-19T02:16:33.122Z,0.57
2022-08-19T02:19:10.781Z,0.80
2022-08-19T02:24:45.571Z,1.27
2022-08-19T02:27:14.767Z,1.17
2022-08-19T02:29:48.830Z,0.73
2022-08-19T02:35:14.263Z,1.42
2022-08-19T02:38:10.595Z,1.25
2022-08-19T02:46:42.523Z,1.10
2022-08-19T02:49:12.537Z,1.98
2022-08-19T02:52:10.926Z,1.63
2022-08-19T02:55:10.752Z,2.55
2022-08-19T02:57:41.119Z,3.90
2022-08-19T03:00:17.808Z,4.63
2022-08-19T03:02:47.886Z,3.63
2022-08-19T03:05:18.149Z,3.80
2022-08-19T03:07:48.578Z,3.88
2022-08-19T03:13:06.728Z,3.63
2022-08-19T03:15:33.679Z,3.30
2022-08-19T03:18:00.717Z,5.00
2022-08-19T03:20:31.046Z,5.05
2022-08-19T03:22:57.564Z,4.50
2022-08-19T03:25:24.047Z,5.32
2022-08-19T03:27:52.694Z,5.03
2022-08-19T03:30:30.000Z,5.22
2022-08-19T03:32:57.314Z,5.30
2022-08-19T03:35:27.092Z,4.73
2022-08-19T03:38:05.023Z,5.13
2022-08-19T03:41:00.463Z,4.90
2022-08-19T03:43:35.072Z,4.25
2022-08-19T03:46:24.478Z,3.38
2022-08-19T03:49:14.377Z,3.63
2022-08-19T03:55:53.472Z,2.85
2022-08-19T04:01:45.586Z,2.40
2022-08-19T04:04:15.415Z,1.60
2022-08-19T04:06:44.567Z,1.15
2022-08-19T04:09:15.343Z,1.10
2022-08-19T04:12:21.591Z,0.60
2022-08-19T04:14:52.277Z,0.63
2022-08-19T04:28:35.112Z,2.15
2022-08-19T04:34:28.858Z,2.28
2022-08-19T04:40:53.971Z,2.42
2022-08-19T04:46:11.411Z,3.47
2022-08-19T04:52:19.850Z,3.75
2022-08-19T05:00:10.400Z,3.17
2022-08-19T05:05:30.460Z,3.10
2022-08-19T05:11:47.289Z,4.13
2022-08-19T05:18:17.407Z,3.85
2022-08-19T05:21:08.057Z,3.30
2022-08-19T05:23:47.927Z,3.88
2022-08-19T05:26:15.674Z,3.42
2022-08-19T05:28:46.592Z,3.63
2022-08-19T05:31:17.570Z,5.00
2022-08-19T05:34:01.960Z,4.15
2022-08-19T05:36:36.724Z,4.70
2022-08-19T05:39:08.520Z,4.97
2022-08-19T05:41:44.189Z,5.13
2022-08-19T05:44:20.412Z,4.55
2022-08-19T05:49:50.732Z,5.90
2022-08-19T05:52:18.914Z,4.40
2022-08-19T05:54:48.628Z,3.37
2022-08-19T05:57:20.092Z,4.13
2022-08-19T05:59:57.899Z,3.25
2022-08-19T06:02:32.085Z,3.70
2022-08-19T06:04:58.756Z,4.82
2022-08-19T06:07:25.412Z,4.43
2022-08-19T06:09:59.101Z,4.38
2022-08-19T06:12:32.482Z,5.72
2022-08-19T06:15:01.269Z,6.90
2022-08-19T06:17:32.243Z,8.00
2022-08-19T06:19:59.715Z,11.53
2022-08-19T06:22:26.923Z,12.65
2022-08-19T06:24:54.841Z,14.18
2022-08-19T06:27:22.332Z,14.93
2022-08-19T06:29:49.375Z,16.55
2022-08-19T06:32:17.713Z,16.03
2022-08-19T06:34:44.273Z,16.65
2022-08-19T06:37:12.095Z,18.10
2022-08-19T06:39:41.085Z,18.08
2022-08-19T06:42:11.005Z,17.70
2022-08-19T06:44:42.619Z,17.87
2022-08-19T06:47:23.822Z,20.00
2022-08-19T06:50:00.956Z,19.90
2022-08-19T06:52:28.218Z,20.55
2022-08-19T06:54:56.953Z,21.38
2022-08-19T06:57:26.768Z,21.73
2022-08-19T06:59:53.857Z,22.45
2022-08-19T07:02:21.472Z,20.67
2022-08-19T07:04:48.571Z,20.25
2022-08-19T07:07:21.346Z,22.08
2022-08-19T07:09:58.237Z,20.87
2022-08-19T07:12:35.921Z,20.25
2022-08-19T07:15:09.662Z,23.38
2022-08-19T07:17:38.239Z,23.85
2022-08-19T07:20:09.384Z,24.58
2022-08-19T07:22:37.691Z,25.73
2022-08-19T07:25:06.094Z,25.70
2022-08-19T07:27:33.592Z,25.88
2022-08-19T07:30:00.515Z,25.10
2022-08-19T07:32:27.709Z,25.42
2022-08-19T07:34:56.490Z,24.70
2022-08-19T07:37:32.393Z,24.27
2022-08-19T07:39:59.630Z,23.95
2022-08-19T07:42:26.527Z,26.30
2022-08-19T07:44:53.166Z,26.90
2022-08-19T07:47:58.578Z,25.57
2022-08-19T07:50:10.682Z,26.75
2022-08-19T07:52:39.506Z,25.52
2022-08-19T07:55:11.410Z,25.85
2022-08-19T07:57:55.935Z,23.60
2022-08-19T08:00:24.240Z,24.00
2022-08-19T08:02:52.328Z,21.90
2022-08-19T08:05:43.677Z,21.17
2022-08-19T08:08:31.072Z,20.63
2022-08-19T08:10:58.829Z,19.58
2022-08-19T08:13:26.508Z,18.23
2022-08-19T08:15:54.690Z,18.23
2022-08-19T08:18:30.941Z,17.75
2022-08-19T08:21:00.929Z,17.83
2022-08-19T08:23:31.882Z,17.40
2022-08-19T08:25:59.179Z,16.80
2022-08-19T08:40:04.333Z,15.68
2022-08-19T08:55:10.985Z,14.10
2022-08-19T08:58:17.349Z,13.60
2022-08-19T09:00:50.744Z,13.33
2022-08-19T09:10:44.970Z,13.95
2022-08-19T09:13:24.643Z,11.73
2022-08-19T09:16:02.449Z,12.33
2022-08-19T09:18:54.910Z,12.90
2022-08-19T09:21:33.210Z,11.82
2022-08-19T09:24:00.325Z,12.07
2022-08-19T09:26:35.228Z,13.93
2022-08-19T09:29:16.604Z,11.57
2022-08-19T09:31:47.448Z,12.63
2022-08-19T09:34:21.359Z,12.38
2022-08-19T09:36:54.551Z,13.25
2022-08-19T09:39:24.565Z,12.93
2022-08-19T09:41:51.486Z,12.03
2022-08-19T09:44:19.405Z,12.48
2022-08-19T09:46:48.078Z,11.85
2022-08-19T09:49:20.616Z,12.10
2022-08-19T09:51:51.455Z,9.95
2022-08-19T09:54:24.931Z,10.60
2022-08-19T09:56:56.534Z,10.13
2022-08-19T09:59:23.460Z,10.15
2022-08-19T10:01:53.789Z,10.73
2022-08-19T10:04:52.879Z,9.75
2022-08-19T10:10:51.274Z,11.63
2022-08-19T10:13:25.984Z,10.27
2022-08-19T10:16:01.737Z,9.60
2022-08-19T10:18:31.782Z,11.15
2022-08-19T10:21:32.830Z,11.53
2022-08-19T10:24:05.006Z,10.15
2022-08-19T10:26:37.080Z,10.38
2022-08-19T10:29:06.428Z,10.05
2022-08-19T10:32:01.417Z,9.63
2022-08-19T10:34:28.512Z,11.17
2022-08-19T10:43:28.875Z,11.32
2022-08-19T10:48:45.872Z,12.13
2022-08-19T10:51:35.389Z,10.57
2022-08-19T10:54:12.478Z,10.82
2022-08-19T10:56:52.277Z,11.65
2022-08-19T11:00:53.317Z,12.25
2022-08-19T11:03:13.711Z,11.27
2022-08-19T11:06:11.735Z,13.52
2022-08-19T11:08:46.535Z,12.98
2022-08-19T11:14:08.817Z,15.50
2022-08-19T11:17:01.176Z,14.47
2022-08-19T11:19:33.425Z,14.68
2022-08-19T11:22:03.795Z,14.48
2022-08-19T11:24:31.854Z,14.55
2022-08-19T11:27:07.046Z,13.95
2022-08-19T11:29:39.314Z,18.07
2022-08-19T11:32:08.422Z,19.02
2022-08-19T11:34:36.319Z,18.60
2022-08-19T11:37:06.729Z,18.70
2022-08-19T11:39:35.330Z,21.02
2022-08-19T11:42:03.971Z,15.43
2022-08-19T11:44:32.002Z,18.10
2022-08-19T11:47:08.885Z,17.15
2022-08-19T11:49:37.264Z,16.77
2022-08-19T11:52:04.304Z,18.98
2022-08-19T11:54:31.981Z,17.90
2022-08-19T11:56:58.529Z,15.15
2022-08-19T11:59:25.273Z,16.50
2022-08-19T12:01:51.891Z,16.92
2022-08-19T12:04:18.641Z,15.35
2022-08-19T12:06:48.570Z,15.73
2022-08-19T12:09:16.611Z,17.50
2022-08-19T12:11:45.350Z,15.82
2022-08-19T12:14:15.247Z,15.90
2022-08-19T12:16:49.093Z,14.50
2022-08-19T12:19:22.223Z,13.50
2022-08-19T12:21:54.134Z,14.35
2022-08-19T12:24:24.086Z,12.85
2022-08-19T12:26:53.456Z,13.48
2022-08-19T12:29:23.710Z,13.15
2022-08-19T12:31:51.180Z,11.77
2022-08-19T12:34:18.136Z,13.93
2022-08-19T12:36:45.584Z,13.30
2022-08-19T12:39:12.257Z,14.25
2022-08-19T12:41:51.581Z,13.77
2022-08-19T12:44:21.534Z,22.87
2022-08-19T12:46:56.679Z,16.10
2022-08-19T12:49:52.336Z,14.32
2022-08-19T12:52:16.251Z,13.60
2022-08-19T12:54:44.192Z,12.00
2022-08-19T12:57:11.567Z,10.87
2022-08-19T12:59:39.139Z,11.88
2022-08-19T13:02:08.352Z,11.32
2022-08-19T13:04:41.788Z,10.50
2022-08-19T13:07:10.126Z,12.40
2022-08-19T13:09:36.941Z,11.50
2022-08-19T13:12:16.336Z,11.30
2022-08-19T13:14:44.008Z,11.90
2022-08-19T13:17:12.790Z,11.20
2022-08-19T13:19:42.498Z,11.32
2022-08-19T13:22:15.083Z,10.60
2022-08-19T13:24:46.871Z,10.48
2022-08-19T13:27:13.782Z,10.60
2022-08-19T13:30:00.465Z,10.75
2022-08-19T13:38:45.434Z,10.07
2022-08-19T13:41:39.581Z,10.65
2022-08-19T13:44:07.675Z,10.43
2022-08-19T13:46:41.924Z,10.55
2022-08-19T13:49:14.939Z,10.77
2022-08-19T14:00:12.247Z,9.32
2022-08-19T14:02:40.873Z,6.13
2022-08-19T14:05:10.712Z,6.80
2022-08-19T14:07:40.237Z,6.10
2022-08-19T14:10:11.182Z,5.80
2022-08-19T14:13:00.590Z,4.65
2022-08-19T14:15:30.798Z,5.13
2022-08-19T14:25:52.811Z,7.75
2022-08-19T14:28:19.402Z,7.72
2022-08-19T14:30:46.011Z,7.90
2022-08-19T14:33:12.604Z,8.07
2022-08-19T14:35:45.807Z,8.23
2022-08-19T14:38:17.620Z,8.20
2022-08-19T14:40:46.805Z,8.77
2022-08-19T14:43:13.933Z,6.33
2022-08-19T14:45:42.816Z,6.30
2022-08-19T14:48:19.023Z,6.45
2022-08-19T14:50:59.152Z,6.62
2022-08-19T14:53:54.036Z,6.30
2022-08-19T14:56:37.161Z,6.20
2022-08-19T14:59:04.052Z,5.35
2022-08-19T15:01:32.908Z,4.55
2022-08-19T15:04:07.900Z,3.78
2022-08-19T15:47:39.887Z,2.53
2022-08-19T15:50:16.120Z,2.40
2022-08-19T15:52:53.244Z,2.65
2022-08-19T15:55:33.131Z,2.25
2022-08-19T15:58:30.857Z,2.90
2022-08-19T16:01:17.850Z,2.50
2022-08-19T16:04:14.078Z,2.50
2022-08-19T16:06:53.126Z,2.90
2022-08-19T16:09:27.072Z,3.45
2022-08-19T16:11:57.212Z,2.80
2022-08-19T16:14:28.940Z,3.47
2022-08-19T16:16:56.802Z,3.28
2022-08-19T16:19:23.990Z,3.13
2022-08-19T16:21:53.098Z,3.63
2022-08-19T16:24:22.232Z,3.50
2022-08-19T16:26:49.418Z,3.37
2022-08-19T16:29:33.360Z,3.70
2022-08-19T16:32:02.935Z,3.67
2022-08-19T16:34:30.310Z,3.78
2022-08-19T16:36:57.113Z,4.43
2022-08-19T16:39:23.737Z,4.07
2022-08-19T16:41:51.772Z,3.92
2022-08-19T16:44:20.713Z,4.05
2022-08-19T16:46:58.385Z,4.40
2022-08-19T16:49:54.129Z,3.45
2022-08-19T16:52:14.729Z,3.60
2022-08-19T16:54:43.564Z,3.60
2022-08-19T16:57:11.685Z,3.35
2022-08-19T16:59:42.594Z,3.70
2022-08-19T17:02:15.529Z,5.68
2022-08-19T17:04:42.017Z,5.43
2022-08-19T17:07:10.019Z,4.55
2022-08-19T17:09:37.078Z,5.63
2022-08-19T17:12:04.884Z,5.45
2022-08-19T17:14:31.323Z,5.03
2022-08-19T17:16:57.822Z,6.10
2022-08-19T17:19:24.331Z,5.95
2022-08-19T17:21:51.020Z,5.00
2022-08-19T17:24:17.501Z,4.85
2022-08-19T17:26:44.182Z,4.60
2022-08-19T17:29:10.680Z,4.37
2022-08-19T17:31:37.265Z,4.18
2022-08-19T17:34:04.532Z,3.83
2022-08-19T17:36:32.922Z,4.03
2022-08-19T17:39:01.691Z,3.90
2022-08-19T17:41:28.707Z,3.47
2022-08-19T17:43:55.323Z,3.65
2022-08-19T17:46:21.983Z,3.55
2022-08-19T17:48:52.735Z,2.20
2022-08-19T17:51:24.566Z,2.90
2022-08-19T17:53:53.576Z,3.03
2022-08-19T17:56:20.939Z,3.08
2022-08-19T17:58:57.620Z,3.30
2022-08-19T18:01:29.501Z,2.85
2022-08-19T18:04:14.452Z,2.60
2022-08-19T18:06:41.680Z,3.30
2022-08-19T18:09:13.221Z,3.00
2022-08-19T18:11:39.836Z,2.90
2022-08-19T18:14:06.268Z,3.03
2022-08-19T18:16:32.803Z,2.47
2022-08-19T18:18:59.699Z,2.40
2022-08-19T18:21:31.575Z,2.22
2022-08-19T18:24:01.685Z,2.20
2022-08-19T18:26:30.178Z,2.10
2022-08-19T18:28:57.172Z,2.65
2022-08-19T18:31:23.996Z,3.10
2022-08-19T18:33:52.571Z,2.45
2022-08-19T18:36:37.497Z,1.83
2022-08-19T18:39:25.004Z,1.92
2022-08-19T18:42:14.306Z,2.03
2022-08-19T18:45:00.171Z,2.20
2022-08-19T18:47:45.344Z,1.60
2022-08-19T18:50:13.061Z,1.38
2022-08-19T18:52:40.819Z,1.25
2022-08-19T18:55:08.248Z,1.20
2022-08-19T18:57:34.890Z,1.03
2022-08-19T19:00:02.810Z,1.02
2022-08-19T19:02:29.388Z,0.80
2022-08-19T19:04:56.111Z,0.90
2022-08-19T19:07:23.333Z,0.70
2022-08-19T19:09:52.563Z,1.03
2022-08-19T19:12:19.091Z,0.85
2022-08-19T19:14:49.521Z,0.80
2022-08-19T19:17:16.880Z,0.75
2022-08-19T19:19:44.216Z,0.47
2022-08-19T19:22:17.105Z,0.57
2022-08-19T19:24:46.532Z,0.60
2022-08-19T19:27:15.435Z,0.70
2022-08-19T19:29:42.346Z,0.57
2022-08-19T19:32:18.898Z,0.75
2022-08-19T19:34:45.450Z,0.50
2022-08-19T19:37:11.941Z,0.80
2022-08-19T19:39:46.292Z,0.73
2022-08-19T19:42:20.514Z,0.57
2022-08-19T19:44:50.478Z,0.90
2022-08-19T19:47:18.679Z,0.83
2022-08-19T19:50:12.869Z,0.70
2022-08-19T19:52:33.672Z,1.38
2022-08-19T19:55:01.547Z,1.45
2022-08-19T19:57:29.334Z,1.27
2022-08-19T19:59:56.979Z,1.27
2022-08-19T20:02:25.113Z,1.00
2022-08-19T20:04:52.663Z,0.70
2022-08-19T20:07:39.397Z,1.48
2022-08-19T20:10:06.099Z,1.60
2022-08-19T20:12:32.614Z,1.70
2022-08-19T20:14:59.045Z,1.35
2022-08-19T20:17:25.496Z,1.15
2022-08-19T20:19:51.966Z,1.80
2022-08-19T20:22:19.131Z,1.52
2022-08-19T20:24:45.785Z,1.37
2022-08-19T20:27:12.609Z,1.50
2022-08-19T20:29:41.457Z,2.17
2022-08-19T20:32:10.784Z,2.08
2022-08-19T20:34:37.950Z,1.90
2022-08-19T20:37:05.568Z,2.50
2022-08-19T20:39:32.081Z,2.40
2022-08-19T20:41:58.687Z,2.58
2022-08-19T20:44:25.703Z,2.65
2022-08-19T20:46:54.609Z,3.53
2022-08-19T20:49:23.035Z,3.77
2022-08-19T20:51:54.488Z,3.90
2022-08-19T20:54:21.589Z,3.08
2022-08-19T20:56:48.247Z,2.90
2022-08-19T20:59:14.891Z,3.40
2022-08-19T21:01:41.407Z,3.23
2022-08-19T21:04:07.815Z,3.25
2022-08-19T21:06:34.492Z,2.80
2022-08-19T21:09:00.927Z,2.80
2022-08-19T21:11:27.580Z,3.42
2022-08-19T21:13:54.270Z,3.20
2022-08-19T21:16:21.108Z,4.85
2022-08-19T21:18:48.351Z,6.43
2022-08-19T21:21:18.257Z,6.00
2022-08-19T21:23:44.827Z,4.38
2022-08-19T21:26:11.318Z,3.70
2022-08-19T21:28:37.842Z,3.38
2022-08-19T21:31:06.621Z,3.60
2022-08-19T21:33:33.703Z,3.60
2022-08-19T21:36:00.447Z,2.95
2022-08-19T21:38:27.226Z,3.53
2022-08-19T21:40:54.242Z,3.20
2022-08-19T21:43:21.040Z,2.78
2022-08-19T21:45:48.358Z,3.78
2022-08-19T21:48:15.175Z,3.78
2022-08-19T21:50:42.820Z,3.40
2022-08-19T21:53:17.619Z,4.07
2022-08-19T21:55:46.045Z,3.63
2022-08-19T21:58:13.791Z,3.83
2022-08-19T22:00:40.413Z,3.25
2022-08-19T22:03:08.039Z,3.97
2022-08-19T22:05:34.571Z,3.83
2022-08-19T22:08:02.241Z,4.30
2022-08-19T22:10:35.005Z,4.38
2022-08-19T22:13:01.683Z,4.32
2022-08-19T22:15:29.134Z,5.30
2022-08-19T22:17:57.348Z,5.65
2022-08-19T22:20:27.164Z,4.72
2022-08-19T22:22:57.043Z,5.05
2022-08-19T22:25:31.986Z,4.68
2022-08-19T22:28:01.862Z,4.57
2022-08-19T22:30:33.558Z,4.35
2022-08-19T22:33:03.389Z,5.80
2022-08-19T22:35:33.166Z,4.97
2022-08-19T22:38:00.724Z,5.40
2022-08-19T22:40:29.656Z,4.23
2022-08-19T22:43:04.733Z,5.18
2022-08-19T22:45:33.319Z,5.60
2022-08-19T22:47:59.894Z,5.80
2022-08-19T22:50:26.369Z,4.85
2022-08-19T22:52:57.893Z,5.17
2022-08-19T22:55:26.725Z,4.82
2022-08-19T22:57:53.424Z,4.60
2022-08-19T23:00:21.637Z,4.78
2022-08-19T23:02:52.208Z,5.43
2022-08-19T23:05:44.918Z,4.97
2022-08-19T23:08:20.835Z,4.97
2022-08-19T23:10:48.565Z,4.35
2022-08-19T23:13:17.212Z,4.72
2022-08-19T23:15:45.279Z,5.88
2022-08-19T23:18:11.954Z,5.67
2022-08-19T23:20:40.407Z,6.22
2022-08-19T23:23:10.595Z,5.80
2022-08-19T23:25:39.185Z,5.57
2022-08-19T23:28:25.206Z,5.22
2022-08-19T23:30:52.821Z,5.30
2022-08-19T23:33:46.582Z,6.20
2022-08-19T23:36:17.810Z,5.95
2022-08-19T23:38:46.599Z,5.50
2022-08-19T23:41:15.034Z,5.18
2022-08-19T23:43:42.069Z,5.17
2022-08-19T23:46:11.398Z,5.18
2022-08-19T23:48:40.092Z,5.28
2022-08-19T23:51:09.650Z,5.93
2022-08-19T23:53:38.490Z,4.80
2022-08-19T23:56:07.328Z,5.80
2022-08-19T23:58:35.656Z,4.88
